createdAt,value
2017-11-08T00:01:25.596Z,18.17
2017-11-08T00:03:53.071Z,18.70
2017-11-08T00:06:20.577Z,17.87
2017-11-08T00:08:48.056Z,19.27
2017-11-08T00:11:15.556Z,17.20
2017-11-08T00:13:43.047Z,17.20
2017-11-08T00:16:10.543Z,17.90
2017-11-08T00:18:38.788Z,18.50
2017-11-08T00:21:06.283Z,19.60
2017-11-08T00:23:35.702Z,17.70
2017-11-08T00:26:03.203Z,17.70
2017-11-08T00:28:30.679Z,18.57
2017-11-08T00:30:58.192Z,17.73
2017-11-08T00:33:25.680Z,17.90
2017-11-08T00:35:53.179Z,18.37
2017-11-08T00:38:20.663Z,17.20
2017-11-08T00:40:48.168Z,18.10
2017-11-08T00:43:15.647Z,17.20
2017-11-08T00:45:43.151Z,17.77
2017-11-08T00:48:11.399Z,17.87
2017-11-08T00:50:38.892Z,17.63
2017-11-08T00:53:10.224Z,16.30
2017-11-08T00:55:37.737Z,17.63
2017-11-08T00:58:05.983Z,18.30
2017-11-08T01:00:34.420Z,17.10
2017-11-08T01:03:02.659Z,18.60
2017-11-08T01:05:30.169Z,16.93
2017-11-08T01:07:58.420Z,17.10
2017-11-08T01:10:25.925Z,16.93
2017-11-08T01:12:54.174Z,17.17
2017-11-08T01:15:21.673Z,16.33
2017-11-08T01:17:49.156Z,18.23
2017-11-08T01:20:17.424Z,17.20
2017-11-08T01:22:44.920Z,18.97
2017-11-08T01:25:13.192Z,17.47
2017-11-08T01:27:40.683Z,17.83
2017-11-08T01:30:08.189Z,18.87
2017-11-08T01:32:35.672Z,17.60
2017-11-08T01:35:03.156Z,18.27
2017-11-08T01:37:36.215Z,16.47
2017-11-08T01:40:03.704Z,17.43
2017-11-08T01:42:32.995Z,16.33
2017-11-08T01:45:00.472Z,18.00
2017-11-08T01:47:27.972Z,18.60
2017-11-08T01:49:55.451Z,18.40
2017-11-08T01:52:22.952Z,16.80
2017-11-08T01:54:51.195Z,18.50
2017-11-08T01:57:18.721Z,17.27
2017-11-08T01:59:46.201Z,19.67
2017-11-08T02:02:13.709Z,17.57
2017-11-08T02:04:41.188Z,17.17
2017-11-08T02:07:08.692Z,18.43
2017-11-08T02:09:36.940Z,17.10
2017-11-08T02:12:04.440Z,17.20
2017-11-08T02:14:32.688Z,18.23
2017-11-08T02:17:00.183Z,18.10
2017-11-08T02:19:27.701Z,18.90
2017-11-08T02:21:55.211Z,18.70
2017-11-08T02:24:22.696Z,18.80
2017-11-08T02:26:53.112Z,18.47
2017-11-08T02:29:20.589Z,18.30
2017-11-08T02:31:48.088Z,18.00
2017-11-08T02:34:16.349Z,19.47
2017-11-08T02:36:43.847Z,18.17
2017-11-08T02:39:12.100Z,19.20
2017-11-08T02:41:39.604Z,19.43
2017-11-08T02:44:07.847Z,17.87
2017-11-08T02:46:35.348Z,18.50
2017-11-08T02:49:02.824Z,18.63
2017-11-08T02:51:31.093Z,18.30
2017-11-08T02:53:58.584Z,17.83
2017-11-08T02:56:26.852Z,22.70
2017-11-08T02:58:54.326Z,18.23
2017-11-08T03:01:21.824Z,20.43
2017-11-08T03:03:50.067Z,18.67
2017-11-08T03:06:17.563Z,18.27
2017-11-08T03:08:45.045Z,17.13
2017-11-08T03:11:13.308Z,17.77
2017-11-08T03:13:40.796Z,17.20
2017-11-08T03:16:09.068Z,17.50
2017-11-08T03:18:36.555Z,17.20
2017-11-08T03:21:04.815Z,19.43
2017-11-08T03:23:32.297Z,17.90
2017-11-08T03:25:59.805Z,18.67
2017-11-08T03:28:27.286Z,18.50
2017-11-08T03:30:54.800Z,19.00
2017-11-08T03:33:22.277Z,17.97
2017-11-08T03:35:49.785Z,16.57
2017-11-08T03:38:17.261Z,19.10
2017-11-08T03:40:45.542Z,17.00
2017-11-08T03:43:13.026Z,17.17
2017-11-08T03:45:40.509Z,18.13
2017-11-08T03:48:08.011Z,17.73
2017-11-08T03:50:35.492Z,18.33
2017-11-08T03:53:03.773Z,16.80
2017-11-08T03:55:31.257Z,18.83
2017-11-08T03:57:59.524Z,18.13
2017-11-08T04:00:27.021Z,18.03
2017-11-08T04:02:55.307Z,18.00
2017-11-08T04:05:23.569Z,20.10
2017-11-08T04:07:51.075Z,17.10
2017-11-08T04:10:18.564Z,19.13
2017-11-08T04:12:46.065Z,17.83
2017-11-08T04:15:13.544Z,19.03
2017-11-08T04:17:41.045Z,17.67
2017-11-08T04:20:09.300Z,18.00
2017-11-08T04:22:36.799Z,17.70
2017-11-08T04:25:05.055Z,19.13
2017-11-08T04:27:32.556Z,18.53
2017-11-08T04:30:00.799Z,18.53
2017-11-08T04:32:28.299Z,19.30
2017-11-08T04:34:55.780Z,20.00
2017-11-08T04:37:24.057Z,19.80
2017-11-08T04:39:51.538Z,18.37
2017-11-08T04:42:19.811Z,17.30
2017-11-08T04:44:47.290Z,19.07
2017-11-08T04:47:14.803Z,19.60
2017-11-08T04:49:42.288Z,19.80
2017-11-08T04:52:09.788Z,19.27
2017-11-08T04:54:37.267Z,18.83
2017-11-08T04:57:04.771Z,18.90
2017-11-08T04:59:32.253Z,20.80
2017-11-08T05:01:59.749Z,22.00
2017-11-08T05:04:27.283Z,19.13
2017-11-08T05:06:54.784Z,20.67
2017-11-08T05:09:22.268Z,21.60
2017-11-08T05:11:49.776Z,22.07
2017-11-08T05:14:18.024Z,20.83
2017-11-08T05:16:45.531Z,18.87
2017-11-08T05:19:13.781Z,20.03
2017-11-08T05:21:41.281Z,20.07
2017-11-08T05:24:08.770Z,20.10
2017-11-08T05:26:36.280Z,20.80
2017-11-08T05:29:03.760Z,20.80
2017-11-08T05:31:31.261Z,19.80
2017-11-08T05:33:58.744Z,21.73
2017-11-08T05:36:27.004Z,20.97
2017-11-08T05:38:54.488Z,20.57
2017-11-08T05:41:23.658Z,20.97
2017-11-08T05:43:51.144Z,21.43
2017-11-08T05:46:18.642Z,20.10
2017-11-08T05:48:46.893Z,22.00
2017-11-08T05:51:14.404Z,21.07
2017-11-08T05:53:42.648Z,22.57
2017-11-08T05:56:10.129Z,22.50
2017-11-08T05:58:37.624Z,22.00
2017-11-08T06:01:05.100Z,22.27
2017-11-08T06:03:33.364Z,23.50
2017-11-08T06:06:00.844Z,21.30
2017-11-08T06:08:28.339Z,20.47
2017-11-08T06:10:56.585Z,22.03
2017-11-08T06:13:24.092Z,21.43
2017-11-08T06:15:52.346Z,22.03
2017-11-08T06:18:19.860Z,23.10
2017-11-08T06:20:47.352Z,21.77
2017-11-08T06:23:14.855Z,23.37
2017-11-08T06:25:42.349Z,22.53
2017-11-08T06:28:09.856Z,23.80
2017-11-08T06:30:37.338Z,23.40
2017-11-08T06:33:04.832Z,21.57
2017-11-08T06:35:32.308Z,22.23
2017-11-08T06:37:59.808Z,22.33
2017-11-08T06:40:28.140Z,24.90
2017-11-08T06:42:55.644Z,23.20
2017-11-08T06:45:23.122Z,23.37
2017-11-08T06:47:51.401Z,22.30
2017-11-08T06:50:18.881Z,22.57
2017-11-08T06:52:46.397Z,24.47
2017-11-08T06:55:13.876Z,25.80
2017-11-08T06:57:41.388Z,22.37
2017-11-08T07:00:09.817Z,22.70
2017-11-08T07:02:37.705Z,24.23
2017-11-08T07:05:05.192Z,23.83
2017-11-08T07:07:32.706Z,23.23
2017-11-08T07:10:00.193Z,30.13
2017-11-08T07:12:28.460Z,30.13
2017-11-08T07:14:55.951Z,26.50
2017-11-08T07:17:24.211Z,24.80
2017-11-08T07:19:51.688Z,25.37
2017-11-08T07:22:25.668Z,26.50
2017-11-08T07:24:53.150Z,26.77
2017-11-08T07:27:20.654Z,25.30
2017-11-08T07:29:48.903Z,27.40
2017-11-08T07:32:16.421Z,27.63
2017-11-08T07:34:44.681Z,46.03
2017-11-08T07:37:12.178Z,32.83
2017-11-08T07:39:40.424Z,28.50
2017-11-08T07:42:07.920Z,26.90
2017-11-08T07:44:35.397Z,26.00
2017-11-08T07:47:02.892Z,24.73
2017-11-08T07:49:30.374Z,26.57
2017-11-08T07:51:57.874Z,28.03
2017-11-08T07:54:25.360Z,26.40
2017-11-08T07:56:55.823Z,26.83
2017-11-08T07:59:26.008Z,25.67
2017-11-08T08:01:53.499Z,27.23
2017-11-08T08:04:20.980Z,27.77
2017-11-08T08:06:48.491Z,26.20
2017-11-08T08:09:15.975Z,28.70
2017-11-08T08:11:46.031Z,31.67
2017-11-08T08:14:13.516Z,49.63
2017-11-08T08:16:41.004Z,34.13
2017-11-08T08:19:09.280Z,29.87
2017-11-08T08:21:36.759Z,27.10
2017-11-08T08:24:04.255Z,26.33
2017-11-08T08:26:31.742Z,26.37
2017-11-08T08:29:01.839Z,26.70
2017-11-08T08:31:30.092Z,28.20
2017-11-08T08:33:57.597Z,26.90
2017-11-08T08:36:25.840Z,25.17
2017-11-08T08:38:53.339Z,26.70
2017-11-08T08:41:20.819Z,36.57
2017-11-08T08:43:49.087Z,30.00
2017-11-08T08:46:16.562Z,24.17
2017-11-08T08:48:44.066Z,25.10
2017-11-08T08:51:11.548Z,24.43
2017-11-08T08:53:39.049Z,25.70
2017-11-08T08:56:06.535Z,24.67
2017-11-08T08:58:34.028Z,27.20
2017-11-08T09:01:02.277Z,27.60
2017-11-08T09:03:29.779Z,24.63
2017-11-08T09:05:57.256Z,24.40
2017-11-08T09:08:25.526Z,26.73
2017-11-08T09:10:53.034Z,26.00
2017-11-08T09:13:20.537Z,26.60
2017-11-08T09:15:48.014Z,24.33
2017-11-08T09:18:15.516Z,25.10
2017-11-08T09:20:42.993Z,26.07
2017-11-08T09:23:11.260Z,24.93
2017-11-08T09:25:38.744Z,26.33
2017-11-08T09:28:07.012Z,25.10
2017-11-08T09:30:34.487Z,27.00
2017-11-08T09:33:02.101Z,24.97
2017-11-08T09:35:29.580Z,27.90
2017-11-08T09:38:02.851Z,24.37
2017-11-08T09:40:31.108Z,24.77
2017-11-08T09:42:58.622Z,25.47
2017-11-08T09:45:26.872Z,25.33
2017-11-08T09:47:54.396Z,25.67
2017-11-08T09:50:21.876Z,55.10
2017-11-08T09:52:49.377Z,31.87
2017-11-08T09:55:16.862Z,52.67
2017-11-08T09:57:44.366Z,40.57
2017-11-08T10:00:12.608Z,48.13
2017-11-08T10:02:40.104Z,44.83
2017-11-08T10:05:07.583Z,32.90
2017-11-08T10:07:35.855Z,30.53
2017-11-08T10:10:03.355Z,27.63
2017-11-08T10:12:30.918Z,25.83
2017-11-08T10:14:58.352Z,27.70
2017-11-08T10:17:25.848Z,26.80
2017-11-08T10:20:00.566Z,26.93
2017-11-08T10:22:30.906Z,27.37
2017-11-08T10:24:58.385Z,25.57
2017-11-08T10:27:26.662Z,26.40
2017-11-08T10:29:54.148Z,26.60
2017-11-08T10:32:22.422Z,29.50
2017-11-08T10:34:49.904Z,30.83
2017-11-08T10:37:17.379Z,30.20
2017-11-08T10:39:45.648Z,28.97
2017-11-08T10:42:13.095Z,28.83
2017-11-08T10:44:40.613Z,29.70
2017-11-08T10:47:08.118Z,29.17
2017-11-08T10:49:36.533Z,32.20
2017-11-08T10:52:04.783Z,32.17
2017-11-08T10:54:32.293Z,29.60
2017-11-08T10:57:00.537Z,32.47
2017-11-08T10:59:28.039Z,29.97
2017-11-08T11:01:55.526Z,30.77
2017-11-08T11:04:23.797Z,29.77
2017-11-08T11:06:51.276Z,31.90
2017-11-08T11:09:22.514Z,31.60
2017-11-08T11:11:49.993Z,31.43
2017-11-08T11:14:17.495Z,33.77
2017-11-08T11:16:44.981Z,33.07
2017-11-08T11:19:12.480Z,32.87
2017-11-08T11:21:39.966Z,33.30
2017-11-08T11:24:12.412Z,31.97
2017-11-08T11:26:41.722Z,33.33
2017-11-08T11:29:11.621Z,30.67
2017-11-08T11:31:39.873Z,33.93
2017-11-08T11:34:07.368Z,33.00
2017-11-08T11:36:34.850Z,31.23
2017-11-08T11:39:03.129Z,31.00
2017-11-08T11:41:31.373Z,32.57
2017-11-08T11:43:58.882Z,30.50
2017-11-08T11:46:26.371Z,31.47
2017-11-08T11:48:54.649Z,30.87
2017-11-08T11:51:25.917Z,32.30
2017-11-08T11:53:53.437Z,31.90
2017-11-08T11:56:20.920Z,29.70
2017-11-08T11:58:48.433Z,30.43
2017-11-08T12:01:15.921Z,32.97
2017-11-08T12:03:43.432Z,33.60
2017-11-08T12:06:10.934Z,32.20
2017-11-08T12:08:39.206Z,32.97
2017-11-08T12:11:06.742Z,32.60
2017-11-08T12:13:34.281Z,32.07
2017-11-08T12:16:02.517Z,30.47
2017-11-08T12:18:30.021Z,32.73
2017-11-08T12:20:57.504Z,31.13
2017-11-08T12:23:25.788Z,32.97
2017-11-08T12:25:54.037Z,31.80
2017-11-08T12:28:23.396Z,33.40
2017-11-08T12:30:51.670Z,33.60
2017-11-08T12:33:23.697Z,31.23
2017-11-08T12:35:51.186Z,31.80
2017-11-08T12:38:18.693Z,29.93
2017-11-08T12:40:46.199Z,30.90
2017-11-08T12:43:13.731Z,30.30
2017-11-08T12:45:41.998Z,34.60
2017-11-08T12:48:09.510Z,31.70
2017-11-08T12:50:36.997Z,29.60
2017-11-08T12:53:04.506Z,30.30
2017-11-08T12:55:31.990Z,32.87
2017-11-08T12:57:59.474Z,31.20
2017-11-08T13:00:27.745Z,31.53
2017-11-08T13:02:55.228Z,32.90
2017-11-08T13:05:27.536Z,32.93
2017-11-08T13:07:56.887Z,31.40
2017-11-08T13:10:25.285Z,29.93
2017-11-08T13:12:52.770Z,30.27
2017-11-08T13:15:20.284Z,31.47
2017-11-08T13:17:47.771Z,29.87
2017-11-08T13:20:15.286Z,31.73
2017-11-08T13:22:42.785Z,30.83
2017-11-08T13:25:11.049Z,30.70
2017-11-08T13:27:38.537Z,30.70
2017-11-08T13:30:06.798Z,30.40
2017-11-08T13:32:34.296Z,29.87
2017-11-08T13:35:02.563Z,31.27
2017-11-08T13:37:30.057Z,30.50
2017-11-08T13:39:58.329Z,31.00
2017-11-08T13:42:25.809Z,29.93
2017-11-08T13:44:54.078Z,30.83
2017-11-08T13:47:21.564Z,33.30
2017-11-08T13:49:49.066Z,31.37
2017-11-08T13:52:16.570Z,31.70
2017-11-08T13:54:44.078Z,32.00
2017-11-08T13:57:12.321Z,31.53
2017-11-08T13:59:39.829Z,31.60
2017-11-08T14:02:08.085Z,32.30
2017-11-08T14:04:35.584Z,32.43
2017-11-08T14:07:03.066Z,33.30
2017-11-08T14:09:31.333Z,32.30
2017-11-08T14:11:58.822Z,31.00
2017-11-08T14:14:27.100Z,32.73
2017-11-08T14:16:54.589Z,32.90
2017-11-08T14:19:22.866Z,30.00
2017-11-08T14:21:50.340Z,32.53
2017-11-08T14:24:18.609Z,30.63
2017-11-08T14:26:46.097Z,30.03
2017-11-08T14:29:19.986Z,32.13
2017-11-08T14:31:47.481Z,32.50
2017-11-08T14:34:14.979Z,33.17
2017-11-08T14:36:42.471Z,32.80
2017-11-08T14:39:09.973Z,33.30
2017-11-08T14:41:39.237Z,31.30
2017-11-08T14:44:06.746Z,33.83
2017-11-08T14:46:34.250Z,42.57
2017-11-08T14:49:02.512Z,35.30
2017-11-08T14:51:32.842Z,34.07
2017-11-08T14:54:00.341Z,31.60
2017-11-08T14:56:27.817Z,32.70
2017-11-08T14:58:56.088Z,33.77
2017-11-08T15:01:23.593Z,32.00
2017-11-08T15:03:51.103Z,31.20
2017-11-08T15:06:18.585Z,33.90
2017-11-08T15:08:46.085Z,33.00
2017-11-08T15:11:16.270Z,32.70
2017-11-08T15:13:43.782Z,32.90
2017-11-08T15:16:11.261Z,34.90
2017-11-08T15:18:39.528Z,33.97
2017-11-08T15:21:07.011Z,32.43
2017-11-08T15:23:34.497Z,32.53
2017-11-08T15:26:02.766Z,34.87
2017-11-08T15:28:30.247Z,32.83
2017-11-08T15:30:58.531Z,39.80
2017-11-08T15:33:26.008Z,36.43
2017-11-08T15:35:54.283Z,32.60
2017-11-08T15:38:22.533Z,31.03
2017-11-08T15:40:50.036Z,36.60
2017-11-08T15:43:18.454Z,32.77
2017-11-08T15:45:45.965Z,32.43
2017-11-08T15:48:13.450Z,33.50
2017-11-08T15:50:40.951Z,34.67
2017-11-08T15:53:09.217Z,31.93
2017-11-08T15:55:36.726Z,32.30
2017-11-08T15:58:04.215Z,31.50
2017-11-08T16:00:31.717Z,29.57
2017-11-08T16:02:59.201Z,32.87
2017-11-08T16:05:26.713Z,77.80
2017-11-08T16:07:54.202Z,78.77
2017-11-08T16:10:21.705Z,37.70
2017-11-08T16:12:51.161Z,31.13
2017-11-08T16:15:19.445Z,31.40
2017-11-08T16:17:51.538Z,31.50
2017-11-08T16:20:19.040Z,31.57
2017-11-08T16:22:46.517Z,31.43
2017-11-08T16:25:14.021Z,32.57
2017-11-08T16:27:42.273Z,36.00
2017-11-08T16:30:09.805Z,34.63
2017-11-08T16:32:37.289Z,35.03
2017-11-08T16:35:04.794Z,34.27
2017-11-08T16:37:32.277Z,36.10
2017-11-08T16:39:59.783Z,60.07
2017-11-08T16:42:27.283Z,33.20
2017-11-08T16:44:54.781Z,32.57
2017-11-08T16:47:22.271Z,34.20
2017-11-08T16:49:50.543Z,34.20
2017-11-08T16:52:18.029Z,32.37
2017-11-08T16:54:46.294Z,34.57
2017-11-08T16:57:13.781Z,33.30
2017-11-08T16:59:41.291Z,34.77
2017-11-08T17:02:08.778Z,34.67
2017-11-08T17:04:36.288Z,34.23
2017-11-08T17:07:03.772Z,34.73
2017-11-08T17:09:32.044Z,36.10
2017-11-08T17:11:59.536Z,31.93
2017-11-08T17:14:27.052Z,36.67
2017-11-08T17:16:54.536Z,36.17
2017-11-08T17:19:22.045Z,43.93
2017-11-08T17:21:49.559Z,42.63
2017-11-08T17:24:17.061Z,38.87
2017-11-08T17:26:44.550Z,41.10
2017-11-08T17:29:13.636Z,36.57
2017-11-08T17:31:41.153Z,37.83
2017-11-08T17:34:08.657Z,35.00
2017-11-08T17:36:36.146Z,35.77
2017-11-08T17:39:03.633Z,37.47
2017-11-08T17:41:31.893Z,34.70
2017-11-08T17:43:59.377Z,36.30
2017-11-08T17:46:26.896Z,38.17
2017-11-08T17:48:54.387Z,37.43
2017-11-08T17:51:21.897Z,32.90
2017-11-08T17:53:49.382Z,33.57
2017-11-08T17:56:17.654Z,35.67
2017-11-08T17:58:45.138Z,33.87
2017-11-08T18:01:12.654Z,34.70
2017-11-08T18:03:40.145Z,37.83
2017-11-08T18:06:07.640Z,38.23
2017-11-08T18:08:35.880Z,33.03
2017-11-08T18:11:03.390Z,33.50
2017-11-08T18:13:31.650Z,32.57
2017-11-08T18:15:59.157Z,31.93
2017-11-08T18:18:27.415Z,33.10
2017-11-08T18:20:54.921Z,32.53
2017-11-08T18:23:23.177Z,30.97
2017-11-08T18:25:50.686Z,32.27
2017-11-08T18:28:18.168Z,31.90
2017-11-08T18:30:45.673Z,32.70
2017-11-08T18:33:13.158Z,33.20
2017-11-08T18:35:40.658Z,32.70
2017-11-08T18:38:08.912Z,33.40
2017-11-08T18:40:36.421Z,31.67
2017-11-08T18:43:03.908Z,30.80
2017-11-08T18:45:31.413Z,31.37
2017-11-08T18:47:58.901Z,32.20
2017-11-08T18:50:26.406Z,29.80
2017-11-08T18:52:53.884Z,30.57
2017-11-08T18:55:21.378Z,30.13
2017-11-08T18:57:48.862Z,28.00
2017-11-08T19:00:16.365Z,27.57
2017-11-08T19:02:44.618Z,41.00
2017-11-08T19:05:12.117Z,41.93
2017-11-08T19:07:40.373Z,32.97
2017-11-08T19:10:07.881Z,28.37
2017-11-08T19:12:36.145Z,29.23
2017-11-08T19:15:03.645Z,29.00
2017-11-08T19:17:31.902Z,28.67
2017-11-08T19:19:59.403Z,28.40
2017-11-08T19:22:27.644Z,28.73
2017-11-08T19:24:55.161Z,26.70
2017-11-08T19:27:23.422Z,28.20
2017-11-08T19:29:50.936Z,28.70
2017-11-08T19:32:18.434Z,28.27
2017-11-08T19:34:45.944Z,29.27
2017-11-08T19:37:13.429Z,29.30
2017-11-08T19:39:41.701Z,29.93
2017-11-08T19:42:09.187Z,30.50
2017-11-08T19:44:37.462Z,30.53
2017-11-08T19:47:04.946Z,30.43
2017-11-08T19:49:33.201Z,48.90
2017-11-08T19:52:00.703Z,34.03
2017-11-08T19:54:28.953Z,26.50
2017-11-08T19:56:56.466Z,27.27
2017-11-08T19:59:24.713Z,26.83
2017-11-08T20:01:52.217Z,27.60
2017-11-08T20:04:20.465Z,28.63
2017-11-08T20:06:47.973Z,24.60
2017-11-08T20:09:16.217Z,27.57
2017-11-08T20:11:43.730Z,27.30
2017-11-08T20:14:11.989Z,28.93
2017-11-08T20:16:39.493Z,28.00
2017-11-08T20:19:07.752Z,27.57
2017-11-08T20:21:35.254Z,27.97
2017-11-08T20:24:03.506Z,27.43
2017-11-08T20:26:31.018Z,29.50
2017-11-08T20:28:58.505Z,28.00
2017-11-08T20:31:26.025Z,26.90
2017-11-08T20:33:53.504Z,27.17
2017-11-08T20:36:21.007Z,27.50
2017-11-08T20:38:48.484Z,25.90
2017-11-08T20:41:15.985Z,27.00
2017-11-08T20:43:43.465Z,29.80
2017-11-08T20:46:11.013Z,29.70
2017-11-08T20:48:38.492Z,28.90
2017-11-08T20:51:06.000Z,28.63
2017-11-08T20:53:33.476Z,28.30
2017-11-08T20:56:01.753Z,46.40
2017-11-08T20:58:29.240Z,36.83
2017-11-08T21:00:57.485Z,27.97
2017-11-08T21:03:24.991Z,31.97
2017-11-08T21:05:53.236Z,27.20
2017-11-08T21:08:20.738Z,29.67
2017-11-08T21:10:48.225Z,29.30
2017-11-08T21:13:16.495Z,30.73
2017-11-08T21:15:43.998Z,29.53
2017-11-08T21:18:11.500Z,29.43
2017-11-08T21:20:38.989Z,29.00
2017-11-08T21:23:06.492Z,29.07
2017-11-08T21:25:34.742Z,29.60
2017-11-08T21:28:02.251Z,31.30
2017-11-08T21:30:30.506Z,32.93
2017-11-08T21:32:58.014Z,34.27
2017-11-08T21:35:25.497Z,39.37
2017-11-08T21:37:52.998Z,31.00
2017-11-08T21:40:20.488Z,30.37
2017-11-08T21:42:47.993Z,31.10
2017-11-08T21:45:16.240Z,29.90
2017-11-08T21:47:43.762Z,30.03
2017-11-08T21:50:11.244Z,32.80
2017-11-08T21:52:40.367Z,31.77
2017-11-08T21:55:07.857Z,32.67
2017-11-08T21:57:35.366Z,32.10
2017-11-08T22:00:03.613Z,31.63
2017-11-08T22:02:31.092Z,29.33
2017-11-08T22:04:58.593Z,30.40
2017-11-08T22:07:26.837Z,31.47
2017-11-08T22:09:54.352Z,31.50
2017-11-08T22:12:22.606Z,33.07
2017-11-08T22:14:50.109Z,29.90
2017-11-08T22:17:18.353Z,33.37
2017-11-08T22:19:45.852Z,31.30
2017-11-08T22:22:13.339Z,31.40
2017-11-08T22:24:41.608Z,31.20
2017-11-08T22:27:09.872Z,31.87
2017-11-08T22:29:37.381Z,31.77
2017-11-08T22:32:04.869Z,31.87
2017-11-08T22:34:34.316Z,32.10
2017-11-08T22:37:01.799Z,56.70
2017-11-08T22:39:29.307Z,34.77
2017-11-08T22:41:57.552Z,30.30
2017-11-08T22:44:25.057Z,33.73
2017-11-08T22:46:53.310Z,32.00
2017-11-08T22:49:20.812Z,32.10
2017-11-08T22:51:49.060Z,33.07
2017-11-08T22:54:16.561Z,30.30
2017-11-08T22:56:44.052Z,30.70
2017-11-08T22:59:12.325Z,32.57
2017-11-08T23:01:39.804Z,29.00
2017-11-08T23:04:08.057Z,33.47
2017-11-08T23:06:35.559Z,32.10
2017-11-08T23:09:03.045Z,32.40
2017-11-08T23:11:33.705Z,32.67
2017-11-08T23:14:01.189Z,32.03
2017-11-08T23:16:28.695Z,31.00
2017-11-08T23:18:56.186Z,31.90
2017-11-08T23:21:24.466Z,30.23
2017-11-08T23:23:51.957Z,28.17
2017-11-08T23:26:19.466Z,31.77
2017-11-08T23:28:46.962Z,30.57
2017-11-08T23:31:14.474Z,30.50
2017-11-08T23:33:41.961Z,28.20
2017-11-08T23:36:09.460Z,29.43
2017-11-08T23:38:36.945Z,29.87
2017-11-08T23:41:04.444Z,28.80
2017-11-08T23:43:32.698Z,28.67
2017-11-08T23:46:00.208Z,29.23
2017-11-08T23:48:28.451Z,29.03
2017-11-08T23:50:55.958Z,26.97
2017-11-08T23:53:24.201Z,26.77
2017-11-08T23:55:54.301Z,27.30
2017-11-08T23:58:21.785Z,25.63
